地図

経路データ

SID SEASON NUMBER BASIN SUBBASIN NAME ISO_TIME NATURE LAT LON WMO_WIND WMO_PRES WMO_AGENCY TRACK_TYPE DIST2LAND LANDFALL IFLAG USA_AGENCY USA_ATCF_ID USA_LAT USA_LON USA_RECORD USA_STATUS USA_WIND USA_PRES USA_SSHS USA_R34_NE USA_R34_SE USA_R34_SW USA_R34_NW USA_R50_NE USA_R50_SE USA_R50_SW USA_R50_NW USA_R64_NE USA_R64_SE USA_R64_SW USA_R64_NW USA_POCI USA_ROCI USA_RMW USA_EYE TOKYO_LAT TOKYO_LON TOKYO_GRADE TOKYO_WIND TOKYO_PRES TOKYO_R50_DIR TOKYO_R50_LONG TOKYO_R50_SHORT TOKYO_R30_DIR TOKYO_R30_LONG TOKYO_R30_SHORT TOKYO_LAND CMA_LAT CMA_LON CMA_CAT CMA_WIND CMA_PRES HKO_LAT HKO_LON HKO_CAT HKO_WIND HKO_PRES NEWDELHI_LAT NEWDELHI_LON NEWDELHI_GRADE NEWDELHI_WIND NEWDELHI_PRES NEWDELHI_CI NEWDELHI_DP NEWDELHI_POCI REUNION_LAT REUNION_LON REUNION_TYPE REUNION_WIND REUNION_PRES REUNION_TNUM REUNION_CI REUNION_RMW REUNION_R34_NE REUNION_R34_SE REUNION_R34_SW REUNION_R34_NW REUNION_R50_NE REUNION_R50_SE REUNION_R50_SW REUNION_R50_NW REUNION_R64_NE REUNION_R64_SE REUNION_R64_SW REUNION_R64_NW BOM_LAT BOM_LON BOM_TYPE BOM_WIND BOM_PRES BOM_TNUM BOM_CI BOM_RMW BOM_R34_NE BOM_R34_SE BOM_R34_SW BOM_R34_NW BOM_R50_NE BOM_R50_SE BOM_R50_SW BOM_R50_NW BOM_R64_NE BOM_R64_SE BOM_R64_SW BOM_R64_NW BOM_ROCI BOM_POCI BOM_EYE BOM_POS_METHOD BOM_PRES_METHOD NADI_LAT NADI_LON NADI_CAT NADI_WIND NADI_PRES WELLINGTON_LAT WELLINGTON_LON WELLINGTON_WIND WELLINGTON_PRES DS824_LAT DS824_LON DS824_STAGE DS824_WIND DS824_PRES TD9636_LAT TD9636_LON TD9636_STAGE TD9636_WIND TD9636_PRES TD9635_LAT TD9635_LON TD9635_WIND TD9635_PRES TD9635_ROCI NEUMANN_LAT NEUMANN_LON NEUMANN_CLASS NEUMANN_WIND NEUMANN_PRES MLC_LAT MLC_LON MLC_CLASS MLC_WIND MLC_PRES USA_GUST BOM_GUST BOM_GUST_PER REUNION_GUST REUNION_GUST_PER USA_SEAHGT USA_SEARAD_NE USA_SEARAD_SE USA_SEARAD_SW USA_SEARAD_NW STORM_SPEED STORM_DIR
1888306N12300 1888 58 NA CS NOT_NAMED 1888-11-01 06:00:00 TS 12.3000 -59.9000 35 hurdat_atl main 215 214 O_____________ hurdat_atl AL081888 12.3000 -59.9000 TS 35 0 16 308
1888306N12300 1888 58 NA CS NOT_NAMED 1888-11-01 09:00:00 TS 12.7905 -60.5492 main 241 239 P_____________ AL081888 12.7905 -60.5492 TS 35 0 15 313
1888306N12300 1888 58 NA CS NOT_NAMED 1888-11-01 12:00:00 TS 13.3000 -61.0000 35 hurdat_atl main 291 291 O_____________ hurdat_atl AL081888 13.3000 -61.0000 TS 35 0 12 332
1888306N12300 1888 58 NA CS NOT_NAMED 1888-11-01 15:00:00 TS 13.8423 -61.1255 main 347 347 P_____________ AL081888 13.8423 -61.1255 TS 35 0 11 355
1888306N12300 1888 58 NA CS NOT_NAMED 1888-11-01 18:00:00 TS 14.4000 -61.1000 35 hurdat_atl main 414 414 O_____________ hurdat_atl AL081888 14.4000 -61.1000 TS 35 0 11 359
1888306N12300 1888 58 NA CS NOT_NAMED 1888-11-01 21:00:00 TS 14.9500 -61.1500 main 481 470 P_____________ AL081888 14.9500 -61.1500 TS 35 0 11 355
1888306N12300 1888 58 NA CS NOT_NAMED 1888-11-02 00:00:00 TS 15.5000 -61.2000 35 hurdat_atl main 537 519 O_____________ hurdat_atl AL081888 15.5000 -61.2000 TS 35 0 11 355
1888306N12300 1888 58 NA CS NOT_NAMED 1888-11-02 03:00:00 TS 16.0650 -61.2575 main 513 490 P_____________ AL081888 16.0650 -61.2575 TS 35 0 11 355
1888306N12300 1888 58 NA CS NOT_NAMED 1888-11-02 06:00:00 TS 16.6000 -61.3000 35 hurdat_atl main 490 475 O_____________ hurdat_atl AL081888 16.6000 -61.3000 TS 35 0 10 358
1888306N12300 1888 58 NA CS NOT_NAMED 1888-11-02 09:00:00 TS 17.0650 -61.3076 main 472 461 P_____________ AL081888 17.0650 -61.3076 TS 37 0 9 0
1888306N12300 1888 58 NA CS NOT_NAMED 1888-11-02 12:00:00 TS 17.5000 -61.3000 40 hurdat_atl main 461 455 O_____________ hurdat_atl AL081888 17.5000 -61.3000 TS 40 0 9 1
1888306N12300 1888 58 NA CS NOT_NAMED 1888-11-02 15:00:00 TS 17.9575 -61.3000 main 455 453 P_____________ AL081888 17.9575 -61.3000 TS 40 0 9 0
1888306N12300 1888 58 NA NA NOT_NAMED 1888-11-02 18:00:00 TS 18.4000 -61.3000 40 hurdat_atl main 453 453 O_____________ hurdat_atl AL081888 18.4000 -61.3000 TS 40 0 9 358
1888306N12300 1888 58 NA NA NOT_NAMED 1888-11-02 21:00:00 TS 18.8075 -61.3074 main 455 455 P_____________ AL081888 18.8075 -61.3074 TS 40 0 8 1
1888306N12300 1888 58 NA NA NOT_NAMED 1888-11-03 00:00:00 TS 19.2000 -61.3000 40 hurdat_atl main 461 461 O_____________ hurdat_atl AL081888 19.2000 -61.3000 TS 40 0 8 3
1888306N12300 1888 58 NA NA NOT_NAMED 1888-11-03 03:00:00 TS 19.6000 -61.2575 main 471 471 P_____________ AL081888 19.6000 -61.2575 TS 40 0 8 7
1888306N12300 1888 58 NA NA NOT_NAMED 1888-11-03 06:00:00 TS 20.0000 -61.2000 40 hurdat_atl main 495 495 O_____________ hurdat_atl AL081888 20.0000 -61.2000 TS 40 0 8 7
1888306N12300 1888 58 NA NA NOT_NAMED 1888-11-03 09:00:00 TS 20.3925 -61.1500 main 522 522 P_____________ AL081888 20.3925 -61.1500 TS 42 0 8 7
1888306N12300 1888 58 NA NA NOT_NAMED 1888-11-03 12:00:00 TS 20.8000 -61.1000 45 hurdat_atl main 542 542 O_____________ hurdat_atl AL081888 20.8000 -61.1000 TS 45 0 9 6
1888306N12300 1888 58 NA NA NOT_NAMED 1888-11-03 15:00:00 TS 21.2425 -61.0648 main 565 565 P_____________ AL081888 21.2425 -61.0648 TS 45 0 9 6
1888306N12300 1888 58 NA NA NOT_NAMED 1888-11-03 18:00:00 TS 21.7000 -61.0000 45 hurdat_atl main 605 605 O_____________ hurdat_atl AL081888 21.7000 -61.0000 TS 45 0 9 11
1888306N12300 1888 58 NA NA NOT_NAMED 1888-11-03 21:00:00 TS 22.1500 -60.8799 main 641 641 P_____________ AL081888 22.1500 -60.8799 TS 45 0 9 17
1888306N12300 1888 58 NA NA NOT_NAMED 1888-11-04 00:00:00 TS 22.6000 -60.7000 45 hurdat_atl main 693 693 O_____________ hurdat_atl AL081888 22.6000 -60.7000 TS 45 0 10 23
1888306N12300 1888 58 NA NA NOT_NAMED 1888-11-04 03:00:00 TS 23.0425 -60.4649 main 738 738 P_____________ AL081888 23.0425 -60.4649 TS 45 0 10 27
1888306N12300 1888 58 NA NA NOT_NAMED 1888-11-04 06:00:00 TS 23.5000 -60.2000 45 hurdat_atl main 799 799 O_____________ hurdat_atl AL081888 23.5000 -60.2000 TS 45 0 11 25
1888306N12300 1888 58 NA NA NOT_NAMED 1888-11-04 09:00:00 TS 23.9923 -59.9795 main 853 853 P_____________ AL081888 23.9923 -59.9795 TS 47 0 11 25
1888306N12300 1888 58 NA NA NOT_NAMED 1888-11-04 12:00:00 TS 24.5000 -59.7000 50 hurdat_atl main 915 915 O_____________ hurdat_atl AL081888 24.5000 -59.7000 TS 50 0 12 32
1888306N12300 1888 58 NA NA NOT_NAMED 1888-11-04 15:00:00 TS 24.9926 -59.2799 main 983 983 P_____________ AL081888 24.9926 -59.2799 TS 50 0 13 39
1888306N12300 1888 58 NA NA NOT_NAMED 1888-11-04 18:00:00 TS 25.5000 -58.8000 50 hurdat_atl main 1058 1058 O_____________ hurdat_atl AL081888 25.5000 -58.8000 TS 50 0 13 39
1888306N12300 1888 58 NA NA NOT_NAMED 1888-11-04 21:00:00 TS 26.0424 -58.3497 main 1133 1133 P_____________ AL081888 26.0424 -58.3497 TS 50 0 14 36
1888306N12300 1888 58 NA NA NOT_NAMED 1888-11-05 00:00:00 TS 26.6000 -57.9000 50 hurdat_atl main 1209 1209 O_____________ hurdat_atl AL081888 26.6000 -57.9000 TS 50 0 14 36
1888306N12300 1888 58 NA NA NOT_NAMED 1888-11-05 03:00:00 TS 27.1573 -57.4571 main 1286 1286 P_____________ AL081888 27.1573 -57.4571 TS 50 0 14 36
1888306N12300 1888 58 NA NA NOT_NAMED 1888-11-05 06:00:00 TS 27.7000 -57.0000 50 hurdat_atl main 1360 1360 O_____________ hurdat_atl AL081888 27.7000 -57.0000 TS 50 0 14 38
1888306N12300 1888 58 NA NA NOT_NAMED 1888-11-05 09:00:00 TS 28.2224 -56.5073 main 1434 1434 P_____________ AL081888 28.2224 -56.5073 TS 50 0 13 41
1888306N12300 1888 58 NA NA NOT_NAMED 1888-11-05 12:00:00 TS 28.7000 -56.0000 50 hurdat_atl main 1509 1509 O_____________ hurdat_atl AL081888 28.7000 -56.0000 TS 50 0 12 45
1888306N12300 1888 58 NA NA NOT_NAMED 1888-11-05 15:00:00 TS 29.0922 -55.5065 main 1574 1574 P_____________ AL081888 29.0922 -55.5065 TS 50 0 12 48
1888306N12300 1888 58 NA NA NOT_NAMED 1888-11-05 18:00:00 TS 29.5000 -55.0000 50 hurdat_atl main 1640 1640 O_____________ hurdat_atl AL081888 29.5000 -55.0000 TS 50 0 13 44
1888306N12300 1888 58 NA NA NOT_NAMED 1888-11-05 21:00:00 TS 30.0425 -54.4428 main 1720 1720 P_____________ AL081888 30.0425 -54.4428 TS 50 0 15 41
1888306N12300 1888 58 NA NA NOT_NAMED 1888-11-06 00:00:00 TS 30.6000 -53.9000 50 hurdat_atl main 1741 1712 O_____________ hurdat_atl AL081888 30.6000 -53.9000 TS 50 0 13 40
1888306N12300 1888 58 NA NA NOT_NAMED 1888-11-06 03:00:00 TS 31.0721 -53.4416 main 1705 1674 P_____________ AL081888 31.0721 -53.4416 TS 50 0 12 41
1888306N12300 1888 58 NA NA NOT_NAMED 1888-11-06 06:00:00 TS 31.5000 -53.0000 50 hurdat_atl main 1678 1637 O_____________ hurdat_atl AL081888 31.5000 -53.0000 TS 50 0 12 44
1888306N12300 1888 58 NA NA NOT_NAMED 1888-11-06 09:00:00 TS 31.9076 -52.4849 main 1637 1594 P_____________ AL081888 31.9076 -52.4849 TS 50 0 12 47
1888306N12300 1888 58 NA NA NOT_NAMED 1888-11-06 12:00:00 TS 32.3000 -52.0000 50 hurdat_atl main 1594 1552 O_____________ hurdat_atl AL081888 32.3000 -52.0000 TS 50 0 11 42
1888306N12300 1888 58 NA NA NOT_NAMED 1888-11-06 15:00:00 TS 32.7148 -51.6122 main 1553 1511 P_____________ AL081888 32.7148 -51.6122 TS 50 0 10 36
1888306N12300 1888 58 NA NA NOT_NAMED 1888-11-06 18:00:00 TS 33.1000 -51.3000 50 hurdat_atl main 1511 1479 O_____________ hurdat_atl AL081888 33.1000 -51.3000 TS 50 0 9 35
1888306N12300 1888 58 NA NA NOT_NAMED 1888-11-06 21:00:00 TS 33.4074 -51.0270 main 1480 1449 P_____________ AL081888 33.4074 -51.0270 TS 50 0 7 35
1888306N12300 1888 58 NA NA NOT_NAMED 1888-11-07 00:00:00 TS 33.7000 -50.8000 50 hurdat_atl main 1449 1419 O_____________ hurdat_atl AL081888 33.7000 -50.8000 TS 50 0 7 29
1888306N12300 1888 58 NA NA NOT_NAMED 1888-11-07 03:00:00 TS 34.0423 -50.6071 main 1419 1377 P_____________ AL081888 34.0423 -50.6071 TS 50 0 8 25
1888306N12300 1888 58 NA NA NOT_NAMED 1888-11-07 06:00:00 TS 34.4000 -50.4000 50 hurdat_atl main 1377 1347 O_____________ hurdat_atl AL081888 34.4000 -50.4000 TS 50 0 8 30
1888306N12300 1888 58 NA NA NOT_NAMED 1888-11-07 09:00:00 TS 34.7349 -50.1295 main 1349 1310 P_____________ AL081888 34.7349 -50.1295 TS 47 0 9 35
1888306N12300 1888 58 NA NA NOT_NAMED 1888-11-07 12:00:00 TS 35.1000 -49.8000 45 hurdat_atl main 1310 1272 O_____________ hurdat_atl AL081888 35.1000 -49.8000 TS 45 0 10 36
1888306N12300 1888 58 NA NA NOT_NAMED 1888-11-07 15:00:00 TS 35.5350 -49.4150 main 1274 1229 P_____________ AL081888 35.5350 -49.4150 TS 45 0 11 36
1888306N12300 1888 58 NA NA NOT_NAMED 1888-11-07 18:00:00 TS 36.0000 -49.0000 45 hurdat_atl main 1229 1194 O_____________ hurdat_atl AL081888 36.0000 -49.0000 TS 45 0 11 36
1888306N12300 1888 58 NA NA NOT_NAMED 1888-11-07 21:00:00 TS 36.4422 -48.6141 main 1196 1154 P_____________ AL081888 36.4422 -48.6141 TS 45 0 11 36
1888306N12300 1888 58 NA NA NOT_NAMED 1888-11-08 00:00:00 TS 36.9000 -48.2000 45 hurdat_atl main 1154 1118 O_____________ hurdat_atl AL081888 36.9000 -48.2000 TS 45 0 12 37
1888306N12300 1888 58 NA NA NOT_NAMED 1888-11-08 03:00:00 TS 37.3850 -47.7146 main 1118 1084 P_____________ AL081888 37.3850 -47.7146 TS 42 0 13 38
1888306N12300 1888 58 NA NA NOT_NAMED 1888-11-08 06:00:00 TS 37.9000 -47.2000 40 hurdat_atl main 1084 1050 O_____________ hurdat_atl AL081888 37.9000 -47.2000 TS 40 0 13 37
1888306N12300 1888 58 NA NA NOT_NAMED 1888-11-08 09:00:00 TS 38.4498 -46.6996 main 1054 1017 P_____________ AL081888 38.4498 -46.6996 TS 37 0 14 35
1888306N12300 1888 58 NA NA NOT_NAMED 1888-11-08 12:00:00 TS 39.0000 -46.2000 35 hurdat_atl main 1017 990 O_____________ hurdat_atl AL081888 39.0000 -46.2000 TS 35 0 13 36
1888306N12300 1888 58 NA NA NOT_NAMED 1888-11-08 15:00:00 TS 39.5129 -45.7012 main 995 975 P_____________ AL081888 39.5129 -45.7012 TS 35 0 13 38
1888306N12300 1888 58 NA NA NOT_NAMED 1888-11-08 18:00:00 TS 40.0000 -45.2000 35 hurdat_atl main 975 O_____________ hurdat_atl AL081888 40.0000 -45.2000 TS 35 0 12 38

IBTrACS Databaseについて

本データベースは、米国NOAAが公開する1842年以降の世界の熱帯低気圧のベストトラックデータアーカイブInternational Best Track Archive for Climate Stewardship (IBTrACS)を、ウェブで閲覧しやすい形式に変換したものです。

最終更新日:2021-11-26